Time;durP1;ratioP1;P1;durP2;ratioP2;P2;SDS_P1;SDS_P2;PMS_P1;PMS_P2;Temp;Humidity;BMP_temperature;BMP_pressure;BME280_temperature;BME280_humidity;BME280_pressure;Samples;Min_cycle;Max_cycle;Signal;HPM_P1;HPM_P2
2023/03/11 00:00:30;;;;;;;0.40;0.40;;;1.10;99.90;;;;;;5036634;28;20860;-79
2023/03/11 00:02:58;;;;;;;0.40;0.40;;;1.20;99.90;;;;;;5032184;28;20478;-79
2023/03/11 00:05:28;;;;;;;0.40;0.40;;;1.10;99.90;;;;;;5029038;28;20450;-79
2023/03/11 00:07:54;;;;;;;0.40;0.40;;;1.00;99.90;;;;;;5017629;28;21002;-80
2023/03/11 00:10:25;;;;;;;0.50;0.50;;;1.20;99.90;;;;;;5025784;28;20438;-79
2023/03/11 00:12:51;;;;;;;0.40;0.40;;;1.20;99.90;;;;;;5038370;28;20697;-79
2023/03/11 00:15:17;;;;;;;0.20;0.20;;;1.20;99.90;;;;;;5027202;28;20438;-79
2023/03/11 00:17:43;;;;;;;0.50;0.50;;;1.10;99.90;;;;;;5028966;28;20253;-79
2023/03/11 00:20:23;;;;;;;0.50;0.50;;;1.10;99.90;;;;;;5030107;28;20467;-79
2023/03/11 00:22:49;;;;;;;0.40;0.40;;;1.20;99.90;;;;;;5030078;28;20231;-79
2023/03/11 00:25:16;;;;;;;0.40;0.40;;;1.10;99.90;;;;;;5028909;28;20516;-79
2023/03/11 00:27:42;;;;;;;0.50;0.50;;;1.00;99.90;;;;;;5030332;28;20450;-79
2023/03/11 00:30:10;;;;;;;0.50;0.50;;;1.00;99.90;;;;;;5012146;28;20526;-80
2023/03/11 00:32:35;;;;;;;0.57;0.57;;;1.00;99.90;;;;;;5027386;28;20446;-79
2023/03/11 00:35:01;;;;;;;0.40;0.40;;;0.90;99.90;;;;;;5025933;28;20957;-79
2023/03/11 00:37:26;;;;;;;0.50;0.50;;;0.90;99.90;;;;;;5013101;28;20188;-79
2023/03/11 00:39:52;;;;;;;0.60;0.60;;;0.90;99.90;;;;;;5018441;28;20783;-79
2023/03/11 00:42:17;;;;;;;0.50;0.50;;;0.90;99.90;;;;;;5021793;28;20187;-79
2023/03/11 00:44:43;;;;;;;0.40;0.40;;;0.80;99.90;;;;;;5029176;28;20184;-79
2023/03/11 00:47:11;;;;;;;0.50;0.50;;;0.90;99.90;;;;;;5009848;28;20223;-79
2023/03/11 00:49:36;;;;;;;0.50;0.50;;;0.80;99.90;;;;;;5026850;28;20196;-80
2023/03/11 00:52:03;;;;;;;0.50;0.50;;;0.80;99.90;;;;;;5029614;28;20442;-79
2023/03/11 00:54:28;;;;;;;0.60;0.60;;;0.70;99.90;;;;;;5026176;28;20222;-79
2023/03/11 00:56:54;;;;;;;0.60;0.60;;;0.80;99.90;;;;;;5031458;28;20821;-80
2023/03/11 00:59:19;;;;;;;0.40;0.40;;;0.80;99.90;;;;;;5040141;28;20194;-80
2023/03/11 01:01:45;;;;;;;0.60;0.60;;;0.80;99.90;;;;;;5032045;28;20186;-80
2023/03/11 01:04:10;;;;;;;0.43;0.43;;;0.80;99.90;;;;;;5012768;28;20199;-79
2023/03/11 01:06:36;;;;;;;0.47;0.47;;;0.80;99.90;;;;;;5032743;28;20266;-80
2023/03/11 01:09:03;;;;;;;0.50;0.50;;;0.80;99.90;;;;;;5034170;28;20698;-79
2023/03/11 01:11:29;;;;;;;0.40;0.40;;;0.80;99.90;;;;;;5028876;28;20650;-80
2023/03/11 01:13:54;;;;;;;0.50;0.50;;;0.80;99.90;;;;;;5041940;28;20516;-79
2023/03/11 01:16:20;;;;;;;0.60;0.60;;;0.80;99.90;;;;;;5008308;28;20192;-79
2023/03/11 01:18:46;;;;;;;0.40;0.40;;;0.80;99.90;;;;;;5014105;28;20195;-80
2023/03/11 01:21:11;;;;;;;0.40;0.40;;;0.80;99.90;;;;;;5035687;28;20727;-80
2023/03/11 01:23:39;;;;;;;0.50;0.50;;;0.80;99.90;;;;;;5036547;28;20442;-79
2023/03/11 01:26:04;;;;;;;0.50;0.50;;;0.90;99.90;;;;;;5027080;28;20701;-79
2023/03/11 01:28:30;;;;;;;0.60;0.60;;;0.70;99.90;;;;;;5028297;28;20554;-80
2023/03/11 01:30:55;;;;;;;0.40;0.40;;;0.90;99.90;;;;;;5018735;28;20188;-79
2023/03/11 01:33:21;;;;;;;0.50;0.50;;;0.90;99.90;;;;;;5028612;28;20709;-79
2023/03/11 01:35:48;;;;;;;0.50;0.50;;;0.80;99.90;;;;;;5029483;28;20230;-80
2023/03/11 01:38:14;;;;;;;0.50;0.50;;;0.90;99.90;;;;;;5023550;28;20188;-79
2023/03/11 01:40:46;;;;;;;0.40;0.40;;;0.80;99.90;;;;;;5026005;28;20993;-79
2023/03/11 01:43:50;;;;;;;0.50;0.50;;;0.80;99.90;;;;;;5034276;28;20585;-79
2023/03/11 01:46:25;;;;;;;0.40;0.40;;;0.90;99.90;;;;;;5026966;28;20571;-80
2023/03/11 01:48:56;;;;;;;0.50;0.50;;;0.90;99.90;;;;;;5029943;28;20536;-79
2023/03/11 01:51:25;;;;;;;0.50;0.50;;;0.80;99.90;;;;;;5037664;28;20953;-79
2023/03/11 01:53:52;;;;;;;0.50;0.50;;;0.80;99.90;;;;;;5032887;28;20491;-79
2023/03/11 01:56:18;;;;;;;0.50;0.50;;;0.80;99.90;;;;;;5028619;28;20799;-79
2023/03/11 01:58:48;;;;;;;0.50;0.50;;;0.80;99.90;;;;;;5033430;28;20441;-79
2023/03/11 02:01:14;;;;;;;0.43;0.43;;;0.80;99.90;;;;;;5027212;28;20946;-80
2023/03/11 02:03:41;;;;;;;0.50;0.50;;;0.80;99.90;;;;;;5030800;28;20442;-80
2023/03/11 02:06:11;;;;;;;0.50;0.50;;;0.70;99.90;;;;;;5048980;28;20548;-79
2023/03/11 02:08:38;;;;;;;0.60;0.60;;;0.70;99.90;;;;;;5033932;28;20819;-79
2023/03/11 02:11:07;;;;;;;0.50;0.50;;;0.80;99.90;;;;;;5046052;28;20437;-79
2023/03/11 02:13:34;;;;;;;0.50;0.50;;;0.80;99.90;;;;;;5040693;28;20433;-79
2023/03/11 02:16:01;;;;;;;0.50;0.50;;;0.90;99.90;;;;;;5031136;28;20972;-79
2023/03/11 02:18:26;;;;;;;0.40;0.40;;;0.70;99.90;;;;;;5031863;28;20549;-80
2023/03/11 02:20:52;;;;;;;0.50;0.50;;;0.80;99.90;;;;;;5014413;28;20549;-79
2023/03/11 02:23:20;;;;;;;0.50;0.50;;;0.80;99.90;;;;;;5034930;28;20183;-79
2023/03/11 02:26:03;;;;;;;0.50;0.50;;;0.80;99.90;;;;;;5038183;28;20226;-79
2023/03/11 02:28:30;;;;;;;0.50;0.50;;;0.90;99.90;;;;;;5012873;28;20450;-79
2023/03/11 02:30:56;;;;;;;0.50;0.50;;;0.70;99.90;;;;;;5028359;28;20794;-79
2023/03/11 02:33:28;;;;;;;0.50;0.50;;;0.70;99.90;;;;;;5031451;28;20969;-79
2023/03/11 02:35:53;;;;;;;0.60;0.60;;;0.80;99.90;;;;;;5031704;28;20802;-79
2023/03/11 02:38:19;;;;;;;0.60;0.60;;;0.70;99.90;;;;;;5031698;28;20441;-79
2023/03/11 02:40:52;;;;;;;0.50;0.50;;;0.80;99.90;;;;;;5029123;28;20272;-79
2023/03/11 02:43:28;;;;;;;0.50;0.50;;;0.60;99.90;;;;;;5044697;28;20241;-79
2023/03/11 02:45:55;;;;;;;0.50;0.50;;;0.60;99.90;;;;;;5030937;28;20469;-79
2023/03/11 02:48:21;;;;;;;0.50;0.50;;;0.60;99.90;;;;;;5014826;28;20448;-79
2023/03/11 02:50:48;;;;;;;0.40;0.40;;;0.60;99.90;;;;;;5031384;28;20453;-79
2023/03/11 02:53:14;;;;;;;0.60;0.60;;;0.40;99.90;;;;;;5030032;28;20442;-79
2023/03/11 02:55:39;;;;;;;0.50;0.50;;;0.50;99.90;;;;;;5038829;28;20273;-79
2023/03/11 02:58:05;;;;;;;0.60;0.60;;;0.40;99.90;;;;;;5029864;28;20430;-79
2023/03/11 03:00:31;;;;;;;0.50;0.50;;;0.50;99.90;;;;;;5030814;28;21018;-79
2023/03/11 03:02:57;;;;;;;0.60;0.60;;;0.50;99.90;;;;;;5029708;28;20187;-79
2023/03/11 03:05:22;;;;;;;0.50;0.50;;;0.40;99.90;;;;;;5031391;28;20218;-79
2023/03/11 03:07:48;;;;;;;0.50;0.50;;;0.40;99.90;;;;;;5044780;28;20450;-79
2023/03/11 03:10:19;;;;;;;0.50;0.50;;;0.50;99.90;;;;;;5029477;28;20187;-79
2023/03/11 03:12:44;;;;;;;0.60;0.60;;;0.40;99.90;;;;;;5034271;28;20453;-79
2023/03/11 03:15:10;;;;;;;0.60;0.60;;;0.50;99.90;;;;;;5023264;28;20429;-79
2023/03/11 03:17:37;;;;;;;0.50;0.50;;;0.40;99.90;;;;;;5024971;28;20540;-80
2023/03/11 03:20:06;;;;;;;0.47;0.47;;;0.40;99.90;;;;;;4998532;28;20447;-79
2023/03/11 03:22:31;;;;;;;0.50;0.50;;;0.40;99.90;;;;;;5031862;28;20513;-79
2023/03/11 03:24:57;;;;;;;0.50;0.50;;;0.30;99.90;;;;;;5028288;28;20544;-79
2023/03/11 03:27:22;;;;;;;0.60;0.60;;;0.30;99.90;;;;;;5027632;28;20232;-79
2023/03/11 03:29:48;;;;;;;0.60;0.60;;;0.20;99.90;;;;;;5012669;28;20188;-79
2023/03/11 03:32:13;;;;;;;0.50;0.50;;;0.20;99.90;;;;;;5039558;28;20248;-79
2023/03/11 03:34:39;;;;;;;0.60;0.60;;;0.20;99.90;;;;;;5029998;28;20558;-79
2023/03/11 03:37:04;;;;;;;0.40;0.40;;;0.20;99.90;;;;;;5029660;28;20819;-80
2023/03/11 03:39:31;;;;;;;0.40;0.40;;;0.00;99.90;;;;;;5029706;28;20187;-80
2023/03/11 03:41:57;;;;;;;0.63;0.63;;;-0.10;99.90;;;;;;5032171;28;20182;-79
2023/03/11 03:44:22;;;;;;;0.50;0.50;;;-0.20;99.90;;;;;;5030234;28;20996;-79
2023/03/11 03:46:48;;;;;;;0.53;0.53;;;-0.20;99.90;;;;;;5030700;28;20223;-79
2023/03/11 03:49:13;;;;;;;0.50;0.50;;;-0.30;99.90;;;;;;5023479;28;20271;-79
2023/03/11 03:51:39;;;;;;;0.50;0.50;;;-0.30;99.90;;;;;;5024203;28;20187;-80
2023/03/11 03:54:04;;;;;;;0.50;0.50;;;-0.40;99.90;;;;;;5018115;28;20188;-79
2023/03/11 03:56:30;;;;;;;0.50;0.50;;;-0.30;99.90;;;;;;5025301;28;20191;-79
2023/03/11 03:58:58;;;;;;;0.60;0.60;;;-0.40;99.90;;;;;;5024829;28;20203;-79
2023/03/11 04:01:24;;;;;;;0.50;0.50;;;-0.40;99.90;;;;;;5028222;28;20345;-79
2023/03/11 04:03:49;;;;;;;0.60;0.60;;;-0.50;99.90;;;;;;5029088;28;20528;-79
2023/03/11 04:06:21;;;;;;;0.47;0.47;;;-0.50;99.90;;;;;;5021365;28;20217;-80
2023/03/11 04:08:47;;;;;;;0.50;0.50;;;-0.50;99.90;;;;;;5043568;28;20190;-79
2023/03/11 04:11:13;;;;;;;0.50;0.50;;;-0.60;99.90;;;;;;5033648;28;20442;-79
2023/03/11 04:13:39;;;;;;;0.50;0.50;;;-0.60;99.90;;;;;;5029273;28;20237;-80
2023/03/11 04:16:06;;;;;;;0.60;0.60;;;-0.60;99.90;;;;;;5028465;28;20438;-80
2023/03/11 04:18:32;;;;;;;0.70;0.70;;;-0.60;99.90;;;;;;5014340;28;20171;-80
2023/03/11 04:20:58;;;;;;;0.50;0.50;;;-0.70;99.90;;;;;;5028740;28;20465;-80
2023/03/11 04:26:27;;;;;;;0.47;0.47;;;-0.70;99.90;;;;;;5025157;28;20221;-79
2023/03/11 04:28:53;;;;;;;0.60;0.60;;;-0.80;99.90;;;;;;5031228;28;20433;-80
2023/03/11 04:31:18;;;;;;;0.60;0.60;;;-0.70;99.90;;;;;;5024895;28;20446;-80
2023/03/11 04:33:44;;;;;;;0.60;0.60;;;-0.80;99.90;;;;;;5026071;28;20282;-79
2023/03/11 04:36:10;;;;;;;0.60;0.60;;;-0.80;99.90;;;;;;5030172;28;20263;-80
2023/03/11 04:38:36;;;;;;;0.60;0.60;;;-0.90;99.90;;;;;;5030028;28;20225;-80
2023/03/11 04:41:27;;;;;;;0.50;0.50;;;-0.80;99.90;;;;;;5037349;28;20839;-79
2023/03/11 04:44:07;;;;;;;0.60;0.60;;;-0.90;99.90;;;;;;5038199;28;20215;-80
2023/03/11 04:46:33;;;;;;;0.50;0.50;;;-0.90;99.90;;;;;;5017919;28;20530;-80
2023/03/11 04:48:59;;;;;;;0.50;0.50;;;-1.00;99.90;;;;;;5015079;28;20488;-80
2023/03/11 04:51:24;;;;;;;0.60;0.60;;;-1.10;99.90;;;;;;5028757;28;20206;-79
2023/03/11 04:54:01;;;;;;;0.70;0.70;;;-1.00;99.90;;;;;;5020342;28;20203;-80
2023/03/11 04:56:34;;;;;;;0.70;0.70;;;-1.10;99.90;;;;;;5022799;28;20191;-80
2023/03/11 04:59:05;;;;;;;0.57;0.57;;;-1.00;99.90;;;;;;5028394;28;20453;-80
2023/03/11 05:01:31;;;;;;;0.67;0.67;;;-1.00;99.90;;;;;;5024864;28;20450;-80
2023/03/11 05:04:36;;;;;;;0.70;0.70;;;-1.00;99.90;;;;;;5031919;28;20484;-80
2023/03/11 05:07:43;;;;;;;0.70;0.70;;;-1.00;99.90;;;;;;5027333;28;20318;-79
2023/03/11 05:10:13;;;;;;;0.60;0.60;;;-1.00;99.90;;;;;;5007161;28;20426;-79
2023/03/11 05:12:46;;;;;;;0.60;0.60;;;-1.10;99.90;;;;;;5029359;28;20524;-79
2023/03/11 05:15:11;;;;;;;0.43;0.43;;;-1.10;99.90;;;;;;5027802;28;20438;-80
2023/03/11 05:17:40;;;;;;;0.60;0.60;;;-1.10;99.90;;;;;;5045685;28;20982;-80
2023/03/11 05:20:06;;;;;;;0.60;0.60;;;-1.00;99.90;;;;;;5026523;28;20326;-79
2023/03/11 05:29:41;;;;;;;0.70;0.70;;;-1.10;99.90;;;;;;4959156;28;20937;-79
2023/03/11 05:38:36;;;;;;;0.57;0.57;;;-1.10;99.90;;;;;;5031659;28;21054;-79
2023/03/11 05:41:07;;;;;;;0.70;0.70;;;-1.30;99.90;;;;;;5042478;28;21193;-79
2023/03/11 05:46:46;;;;;;;0.60;0.60;;;-1.20;99.90;;;;;;5028367;28;20511;-80
2023/03/11 05:49:12;;;;;;;0.60;0.60;;;-1.30;99.90;;;;;;5034638;28;20955;-80
2023/03/11 05:51:38;;;;;;;0.50;0.50;;;-1.30;99.90;;;;;;5030988;28;20525;-80
2023/03/11 05:55:13;;;;;;;;;;;;;;;;;;;;;
2023/03/11 05:57:39;;;;;;;0.50;0.50;;;-1.30;99.90;;;;;;5028144;28;20654;-80
2023/03/11 06:00:10;;;;;;;0.60;0.60;;;-1.30;99.90;;;;;;5035648;28;20431;-80
2023/03/11 06:02:37;;;;;;;0.60;0.60;;;-1.30;99.90;;;;;;5024207;28;20746;-79
2023/03/11 06:05:02;;;;;;;0.40;0.40;;;-1.30;99.90;;;;;;5030169;28;20937;-80
2023/03/11 06:07:28;;;;;;;0.60;0.60;;;-1.30;99.90;;;;;;5030096;28;20484;-79
2023/03/11 06:09:53;;;;;;;0.70;0.70;;;-1.30;99.90;;;;;;5014452;28;20187;-79
2023/03/11 06:12:19;;;;;;;0.60;0.60;;;-1.30;99.90;;;;;;5031240;28;20666;-79
2023/03/11 06:14:47;;;;;;;0.70;0.70;;;-1.20;99.90;;;;;;5010884;28;20204;-79
2023/03/11 06:17:13;;;;;;;0.70;0.70;;;-1.20;99.90;;;;;;5027660;28;20515;-79
2023/03/11 06:19:38;;;;;;;0.60;0.60;;;-1.30;99.90;;;;;;5016894;28;20447;-80
2023/03/11 06:22:04;;;;;;;0.70;0.70;;;-1.30;99.90;;;;;;5028323;28;20187;-79
2023/03/11 06:24:29;;;;;;;0.70;0.70;;;-1.30;99.90;;;;;;5032135;28;20209;-79
2023/03/11 06:26:55;;;;;;;0.70;0.70;;;-1.30;99.90;;;;;;5014325;28;20223;-78
2023/03/11 06:29:23;;;;;;;0.50;0.50;;;-1.30;99.90;;;;;;5027317;28;20184;-79
2023/03/11 06:31:49;;;;;;;0.60;0.60;;;-1.20;99.90;;;;;;5030574;28;20528;-79
2023/03/11 06:34:15;;;;;;;0.50;0.50;;;-1.20;99.90;;;;;;5024573;28;20965;-78
2023/03/11 06:36:43;;;;;;;0.60;0.60;;;-1.10;99.90;;;;;;5026145;28;20442;-78
2023/03/11 06:39:17;;;;;;;0.60;0.60;;;-1.10;99.90;;;;;;5025500;28;20199;-78
2023/03/11 06:42:14;;;;;;;0.70;0.70;;;-1.00;99.90;;;;;;5032395;28;20477;-78
2023/03/11 06:44:40;;;;;;;0.70;0.70;;;-1.10;99.90;;;;;;5037084;28;20520;-78
2023/03/11 06:47:05;;;;;;;0.67;0.67;;;-1.10;99.90;;;;;;5028621;28;20548;-78
2023/03/11 06:49:49;;;;;;;;;;;;;;;;;;;;;
2023/03/11 06:53:24;;;;;;;0.60;0.60;;;-0.80;99.90;;;;;;5027379;28;20193;-77
2023/03/11 06:56:03;;;;;;;0.60;0.60;;;-0.70;99.90;;;;;;4998624;28;20456;-78
2023/03/11 06:58:39;;;;;;;0.60;0.60;;;-0.70;99.90;;;;;;4982391;28;20486;-78
2023/03/11 07:01:20;;;;;;;0.70;0.70;;;-0.50;99.90;;;;;;5023333;28;20436;-78
2023/03/11 07:03:47;;;;;;;0.60;0.60;;;-0.40;99.90;;;;;;5029961;28;20523;-78
2023/03/11 07:06:16;;;;;;;0.57;0.57;;;-0.30;99.90;;;;;;5034905;28;20478;-78
2023/03/11 07:08:41;;;;;;;0.60;0.60;;;-0.30;99.90;;;;;;5018885;28;20434;-78
2023/03/11 07:11:14;;;;;;;0.60;0.60;;;-0.10;99.90;;;;;;5027988;28;20457;-78
2023/03/11 07:13:40;;;;;;;0.50;0.50;;;0.00;99.90;;;;;;5014697;28;20245;-78
2023/03/11 07:16:09;;;;;;;0.60;0.60;;;0.20;99.90;;;;;;5022820;28;20998;-78
2023/03/11 07:18:35;;;;;;;0.60;0.60;;;0.30;99.90;;;;;;5020885;28;20219;-78
2023/03/11 07:21:02;;;;;;;0.60;0.60;;;0.40;99.90;;;;;;5023062;28;20434;-78
2023/03/11 07:23:28;;;;;;;0.50;0.50;;;0.50;99.90;;;;;;5042326;28;20675;-77
2023/03/11 07:25:54;;;;;;;0.50;0.50;;;0.70;99.90;;;;;;5025110;28;20470;-78
2023/03/11 07:28:21;;;;;;;0.50;0.50;;;0.80;99.90;;;;;;5025198;28;20199;-78
2023/03/11 07:30:47;;;;;;;0.50;0.50;;;0.80;99.90;;;;;;5026225;28;20474;-77
2023/03/11 07:33:13;;;;;;;0.60;0.60;;;0.90;99.90;;;;;;5031715;28;20818;-77
2023/03/11 07:35:38;;;;;;;0.50;0.50;;;1.30;99.90;;;;;;5033106;28;20442;-78
2023/03/11 07:38:04;;;;;;;0.50;0.50;;;1.20;99.90;;;;;;5031215;28;20660;-77
2023/03/11 07:40:29;;;;;;;0.50;0.50;;;1.30;99.90;;;;;;5023450;28;20183;-78
2023/03/11 07:42:55;;;;;;;0.50;0.50;;;1.40;99.90;;;;;;5028556;28;20602;-77
2023/03/11 07:45:20;;;;;;;0.50;0.50;;;1.60;99.90;;;;;;5023276;28;20195;-78
2023/03/11 07:47:46;;;;;;;0.40;0.40;;;1.70;99.90;;;;;;5015296;28;20587;-78
2023/03/11 07:50:12;;;;;;;0.50;0.50;;;1.80;99.90;;;;;;5022045;28;20171;-78
2023/03/11 07:52:37;;;;;;;0.50;0.50;;;1.70;99.90;;;;;;5041469;28;20561;-78
2023/03/11 07:55:03;;;;;;;0.40;0.40;;;2.00;99.90;;;;;;5034824;28;20651;-78
2023/03/11 07:57:29;;;;;;;0.40;0.40;;;2.10;99.90;;;;;;5028247;28;20194;-78
2023/03/11 07:59:54;;;;;;;0.50;0.50;;;1.90;99.90;;;;;;5021397;28;20435;-78
2023/03/11 08:02:20;;;;;;;0.40;0.40;;;2.30;99.90;;;;;;5011130;28;20190;-77
2023/03/11 08:04:54;;;;;;;0.50;0.50;;;2.40;99.90;;;;;;5007249;28;20199;-78
2023/03/11 08:07:20;;;;;;;0.30;0.30;;;2.50;99.90;;;;;;5019377;28;20227;-78
2023/03/11 08:09:49;;;;;;;0.50;0.50;;;2.70;99.90;;;;;;5024712;28;20450;-78
2023/03/11 08:12:14;;;;;;;0.47;0.47;;;2.60;99.90;;;;;;5023744;28;20196;-79
2023/03/11 08:14:42;;;;;;;0.50;0.50;;;2.90;99.90;;;;;;5026183;28;20858;-78
2023/03/11 08:17:08;;;;;;;0.40;0.40;;;2.90;99.90;;;;;;5038828;28;20565;-78
2023/03/11 08:19:34;;;;;;;0.40;0.40;;;2.70;99.90;;;;;;5026383;28;20517;-78
2023/03/11 08:22:03;;;;;;;0.40;0.40;;;2.90;99.90;;;;;;5025030;28;20454;-77
2023/03/11 08:24:29;;;;;;;0.40;0.40;;;3.00;99.90;;;;;;5032404;28;20191;-78
2023/03/11 08:26:55;;;;;;;0.50;0.50;;;3.20;99.90;;;;;;5046051;28;20492;-78
2023/03/11 08:29:22;;;;;;;0.50;0.50;;;3.50;99.90;;;;;;5029867;28;20546;-78
2023/03/11 08:31:47;;;;;;;0.40;0.40;;;3.40;99.90;;;;;;5031670;28;20525;-77
2023/03/11 08:34:13;;;;;;;0.50;0.50;;;3.40;99.90;;;;;;5036409;28;20742;-78
2023/03/11 08:36:39;;;;;;;0.40;0.40;;;3.60;99.90;;;;;;5048056;28;20189;-78
2023/03/11 08:39:04;;;;;;;0.40;0.40;;;3.70;99.90;;;;;;5032003;28;20442;-78
2023/03/11 08:41:30;;;;;;;0.40;0.40;;;3.70;99.90;;;;;;5031720;28;20187;-78
2023/03/11 08:43:56;;;;;;;0.40;0.40;;;3.80;99.90;;;;;;5042256;28;20234;-77
2023/03/11 08:46:29;;;;;;;0.40;0.40;;;3.90;99.90;;;;;;5044315;28;20226;-77
2023/03/11 08:48:55;;;;;;;0.40;0.40;;;4.00;99.90;;;;;;5039491;28;20183;-77
2023/03/11 08:51:22;;;;;;;0.30;0.30;;;4.20;99.90;;;;;;5013410;28;20487;-77
2023/03/11 08:53:48;;;;;;;0.40;0.40;;;4.20;99.90;;;;;;5045742;28;20532;-77
2023/03/11 08:56:14;;;;;;;0.30;0.30;;;4.00;99.90;;;;;;5029732;28;20445;-77
2023/03/11 08:58:40;;;;;;;0.30;0.30;;;4.40;99.90;;;;;;5031965;28;20441;-77
2023/03/11 09:01:08;;;;;;;0.30;0.30;;;4.40;99.90;;;;;;5016903;28;20180;-78
2023/03/11 09:03:34;;;;;;;0.40;0.40;;;4.60;99.90;;;;;;5028310;28;20586;-77
2023/03/11 09:06:02;;;;;;;0.40;0.40;;;4.00;99.90;;;;;;5030210;28;20466;-78
2023/03/11 09:08:28;;;;;;;0.27;0.27;;;4.30;99.90;;;;;;5021319;28;20806;-78
2023/03/11 09:10:54;;;;;;;0.30;0.30;;;4.40;99.90;;;;;;5025751;28;20425;-78
2023/03/11 09:13:19;;;;;;;0.30;0.30;;;4.80;99.90;;;;;;5042593;28;20665;-78
2023/03/11 09:15:45;;;;;;;0.27;0.27;;;4.80;99.90;;;;;;5030535;28;20241;-78
2023/03/11 09:18:12;;;;;;;0.30;0.30;;;4.60;99.90;;;;;;5039179;28;20651;-78
2023/03/11 09:20:38;;;;;;;0.40;0.40;;;5.20;99.90;;;;;;5033005;28;20183;-78
2023/03/11 09:23:05;;;;;;;0.37;0.37;;;5.30;99.90;;;;;;5050870;28;20457;-78
2023/03/11 09:25:30;;;;;;;0.30;0.30;;;5.30;99.90;;;;;;5050259;28;20440;-78
2023/03/11 09:27:56;;;;;;;0.40;0.40;;;5.30;99.90;;;;;;5052206;28;20477;-79
2023/03/11 09:30:21;;;;;;;0.30;0.30;;;5.60;99.90;;;;;;5041855;28;20354;-78
2023/03/11 09:32:46;;;;;;;0.30;0.30;;;5.70;99.90;;;;;;5035030;28;20278;-78
2023/03/11 09:35:12;;;;;;;0.20;0.20;;;5.50;99.90;;;;;;5035551;28;20194;-78
2023/03/11 09:37:38;;;;;;;0.30;0.30;;;5.40;99.90;;;;;;5046023;28;20187;-78
2023/03/11 09:40:04;;;;;;;0.40;0.40;;;5.40;99.90;;;;;;5017934;28;20203;-78
2023/03/11 09:42:39;;;;;;;0.33;0.33;;;5.40;99.90;;;;;;5046202;28;20198;-78
2023/03/11 09:45:10;;;;;;;0.23;0.23;;;5.80;99.90;;;;;;5039700;28;20442;-78
2023/03/11 09:47:40;;;;;;;0.40;0.40;;;5.90;99.90;;;;;;5041126;28;20505;-78
2023/03/11 09:50:25;;;;;;;0.30;0.30;;;6.10;99.90;;;;;;5021742;28;20827;-78
2023/03/11 09:53:13;;;;;;;0.30;0.30;;;6.30;99.90;;;;;;5026137;28;20442;-78
2023/03/11 09:55:57;;;;;;;0.30;0.30;;;6.50;99.90;;;;;;5020464;28;21040;-78
2023/03/11 09:58:38;;;;;;;0.20;0.20;;;6.30;99.90;;;;;;5028139;28;20440;-78
2023/03/11 10:01:15;;;;;;;0.30;0.30;;;7.30;99.90;;;;;;5035978;28;20441;-78
2023/03/11 10:03:42;;;;;;;0.23;0.23;;;7.80;99.90;;;;;;5026504;28;21061;-78
2023/03/11 10:06:19;;;;;;;0.30;0.30;;;7.20;99.90;;;;;;5034062;28;20520;-78
2023/03/11 10:09:01;;;;;;;0.30;0.30;;;6.90;99.90;;;;;;5029821;28;20446;-78
2023/03/11 10:11:55;;;;;;;0.20;0.20;;;7.40;99.90;;;;;;5046581;28;20476;-78
2023/03/11 10:14:51;;;;;;;0.20;0.20;;;7.90;99.90;;;;;;5037169;28;20452;-78
2023/03/11 10:17:48;;;;;;;0.20;0.20;;;8.40;99.90;;;;;;5035000;28;20501;-78
2023/03/11 10:20:25;;;;;;;0.30;0.30;;;8.00;99.90;;;;;;5018025;28;20441;-79
2023/03/11 10:23:29;;;;;;;0.30;0.30;;;8.30;99.90;;;;;;5038136;28;20452;-78
2023/03/11 10:26:04;;;;;;;0.30;0.30;;;8.40;99.90;;;;;;5018463;28;20461;-78
2023/03/11 10:28:35;;;;;;;0.20;0.20;;;9.30;99.90;;;;;;5034837;28;20480;-78
2023/03/11 10:31:28;;;;;;;0.30;0.30;;;9.30;99.90;;;;;;5030622;28;21019;-79
2023/03/11 10:34:15;;;;;;;0.20;0.20;;;8.70;99.90;;;;;;5027165;28;20457;-78
2023/03/11 10:37:03;;;;;;;0.20;0.20;;;8.90;99.90;;;;;;5038934;28;21130;-79
2023/03/11 10:39:31;;;;;;;0.20;0.20;;;9.00;99.90;;;;;;5032429;28;20449;-79
2023/03/11 10:42:02;;;;;;;0.20;0.20;;;8.70;99.90;;;;;;5046131;28;20441;-79
2023/03/11 10:44:37;;;;;;;0.20;0.20;;;9.30;99.90;;;;;;5035042;28;20487;-79
2023/03/11 10:47:03;;;;;;;0.20;0.20;;;9.60;99.90;;;;;;5020112;28;20532;-79
2023/03/11 10:49:30;;;;;;;0.20;0.20;;;9.60;99.90;;;;;;5033878;28;20448;-78
2023/03/11 10:51:56;;;;;;;0.20;0.20;;;9.60;99.90;;;;;;5034332;28;20461;-78
2023/03/11 10:54:29;;;;;;;0.20;0.20;;;10.30;99.90;;;;;;5030670;28;20425;-78
2023/03/11 10:57:01;;;;;;;0.20;0.20;;;8.40;99.90;;;;;;5034231;28;20525;-78
2023/03/11 10:59:33;;;;;;;0.20;0.20;;;8.20;99.90;;;;;;5026983;28;21005;-79
2023/03/11 11:02:02;;;;;;;0.30;0.30;;;7.80;99.90;;;;;;5030092;28;20549;-78
2023/03/11 11:04:34;;;;;;;0.20;0.20;;;8.20;99.90;;;;;;5032856;28;20487;-78
2023/03/11 11:07:33;;;;;;;0.20;0.20;;;8.30;99.90;;;;;;5033090;28;20478;-77
2023/03/11 11:10:10;;;;;;;0.30;0.30;;;8.60;99.90;;;;;;5024180;28;20434;-77
2023/03/11 11:12:56;;;;;;;0.20;0.20;;;7.70;99.90;;;;;;5025315;28;20570;-78
2023/03/11 11:15:31;;;;;;;0.20;0.20;;;8.00;99.90;;;;;;5031145;28;21359;-78
2023/03/11 11:18:00;;;;;;;0.20;0.20;;;7.50;99.90;;;;;;5031342;28;20540;-80
2023/03/11 11:20:27;;;;;;;0.30;0.30;;;8.20;99.90;;;;;;5043060;28;20462;-79
2023/03/11 11:22:56;;;;;;;0.20;0.20;;;8.60;99.90;;;;;;5046024;28;20441;-80
2023/03/11 11:25:37;;;;;;;0.20;0.20;;;9.10;99.90;;;;;;5045679;28;20508;-80
2023/03/11 11:28:22;;;;;;;0.20;0.20;;;10.70;99.90;;;;;;5035720;28;20541;-80
2023/03/11 11:31:02;;;;;;;0.20;0.20;;;9.90;99.90;;;;;;5028047;28;20445;-81
2023/03/11 11:33:37;;;;;;;0.20;0.20;;;8.70;99.90;;;;;;5037615;28;20456;-80
2023/03/11 11:36:05;;;;;;;0.20;0.20;;;8.50;99.90;;;;;;5033555;28;20448;-79
2023/03/11 11:38:31;;;;;;;0.20;0.20;;;9.20;99.90;;;;;;5001849;28;20518;-77
2023/03/11 11:41:01;;;;;;;0.10;0.10;;;10.60;99.90;;;;;;5029527;28;20475;-79
2023/03/11 11:43:48;;;;;;;0.10;0.10;;;11.40;99.90;;;;;;5025188;28;20580;-79
2023/03/11 11:46:45;;;;;;;0.10;0.10;;;12.30;99.90;;;;;;5042012;28;20477;-80
2023/03/11 11:49:30;;;;;;;0.10;0.10;;;12.80;99.50;;;;;;5020631;28;20449;-79
2023/03/11 11:52:10;;;;;;;0.07;0.07;;;13.00;98.80;;;;;;5023419;28;20469;-80
2023/03/11 11:55:01;;;;;;;0.00;0.00;;;12.80;97.60;;;;;;5032258;28;20422;-80
2023/03/11 11:57:27;;;;;;;0.10;0.10;;;10.60;98.40;;;;;;5035201;28;20458;-79
2023/03/11 11:59:53;;;;;;;0.10;0.10;;;8.80;99.90;;;;;;5034370;28;20481;-79
2023/03/11 12:02:42;;;;;;;0.10;0.10;;;8.50;99.90;;;;;;5035126;28;20226;-79
2023/03/11 12:05:31;;;;;;;0.10;0.10;;;9.20;99.90;;;;;;5029284;28;20278;-80
2023/03/11 12:08:23;;;;;;;0.10;0.10;;;10.40;99.90;;;;;;5032228;28;21000;-77
2023/03/11 12:10:52;;;;;;;0.10;0.10;;;10.70;99.90;;;;;;5036829;28;20449;-79
2023/03/11 12:14:02;;;;;;;0.07;0.07;;;12.80;99.90;;;;;;5028824;28;20504;-79
2023/03/11 12:16:41;;;;;;;0.10;0.10;;;12.50;97.70;;;;;;5027813;28;21242;-76
2023/03/11 12:19:09;;;;;;;0.03;0.03;;;11.10;97.70;;;;;;5027109;28;21039;-79
2023/03/11 12:21:54;;;;;;;0.10;0.10;;;11.30;97.60;;;;;;5028938;28;20446;-79
2023/03/11 12:24:40;;;;;;;0.10;0.10;;;12.30;98.10;;;;;;5027971;28;20511;-79
2023/03/11 12:27:20;;;;;;;0.10;0.10;;;12.80;96.30;;;;;;5029125;28;20494;-78
2023/03/11 12:29:51;;;;;;;0.03;0.03;;;13.10;95.70;;;;;;5012218;28;20497;-80
2023/03/11 12:32:30;;;;;;;0.00;0.00;;;14.00;96.20;;;;;;5022111;28;20930;-80
2023/03/11 12:35:03;;;;;;;0.00;0.00;;;13.80;95.10;;;;;;5027475;28;20529;-79
2023/03/11 12:37:29;;;;;;;0.00;0.00;;;14.20;95.80;;;;;;5026653;28;20438;-80
2023/03/11 12:39:55;;;;;;;0.00;0.00;;;14.90;94.40;;;;;;5027960;28;20487;-80
2023/03/11 12:42:23;;;;;;;0.00;0.00;;;13.40;98.00;;;;;;5029167;28;20948;-79
2023/03/11 12:44:50;;;;;;;0.00;0.00;;;12.30;96.50;;;;;;5009229;28;20346;-77
2023/03/11 12:47:18;;;;;;;0.10;0.10;;;10.70;98.90;;;;;;5028419;28;20496;-77
2023/03/11 12:50:14;;;;;;;0.00;0.00;;;11.80;99.90;;;;;;5041976;28;20434;-78
2023/03/11 12:52:52;;;;;;;0.10;0.10;;;11.40;99.90;;;;;;5040032;28;20458;-80
2023/03/11 12:55:17;;;;;;;0.10;0.10;;;9.50;99.90;;;;;;5030000;28;20481;-80
2023/03/11 12:57:52;;;;;;;0.10;0.10;;;9.20;99.90;;;;;;5017378;28;20495;-80
2023/03/11 13:00:56;;;;;;;0.13;0.13;;;8.50;99.90;;;;;;5027268;28;20197;-80
2023/03/11 13:03:57;;;;;;;0.13;0.13;;;8.40;99.90;;;;;;5031981;28;20533;-79
2023/03/11 13:06:52;;;;;;;0.10;0.10;;;9.10;99.90;;;;;;4999710;28;20789;-77
2023/03/11 13:09:18;;;;;;;0.10;0.10;;;12.10;99.90;;;;;;5048791;28;20421;-78
2023/03/11 13:11:47;;;;;;;0.10;0.10;;;12.00;99.90;;;;;;5047408;28;20548;-79
2023/03/11 13:14:24;;;;;;;0.00;0.00;;;12.90;99.90;;;;;;5021201;28;20189;-80
2023/03/11 13:16:50;;;;;;;0.00;0.00;;;13.60;98.30;;;;;;5015273;28;20513;-80
2023/03/11 13:19:30;;;;;;;0.00;0.00;;;13.20;97.40;;;;;;5026570;28;20845;-80
2023/03/11 13:21:58;;;;;;;0.00;0.00;;;14.00;96.80;;;;;;5045963;28;20445;-80
2023/03/11 13:24:24;;;;;;;0.00;0.00;;;14.80;99.20;;;;;;5036546;28;20540;-80
2023/03/11 13:27:00;;;;;;;0.00;0.00;;;12.90;99.10;;;;;;5033079;28;20489;-80
2023/03/11 13:29:56;;;;;;;0.00;0.00;;;13.80;99.90;;;;;;5039198;28;20938;-79
2023/03/11 13:32:33;;;;;;;0.00;0.00;;;14.20;98.80;;;;;;5015344;28;20442;-78
2023/03/11 13:35:08;;;;;;;0.00;0.00;;;11.70;99.90;;;;;;5037412;28;20461;-79